createdAt,value
2022-12-28T00:00:23.566Z,100967.80
2022-12-28T00:03:15.587Z,100963.80
2022-12-28T00:05:44.201Z,100961.20
2022-12-28T00:08:12.434Z,100957.20
2022-12-28T00:11:07.688Z,100959.60
2022-12-28T00:13:31.502Z,100952.20
2022-12-28T00:16:28.168Z,100957.80
2022-12-28T00:18:59.513Z,100968.20
2022-12-28T00:21:29.857Z,100956.60
2022-12-28T00:24:01.361Z,100945.20
2022-12-28T00:26:33.959Z,100957.40
2022-12-28T00:29:05.997Z,100946.60
2022-12-28T00:31:38.254Z,100946.80
2022-12-28T00:34:06.665Z,100937.20
2022-12-28T00:37:08.528Z,100935.80
2022-12-28T00:39:24.184Z,100949.00
2022-12-28T00:41:52.695Z,100948.00
2022-12-28T00:44:23.889Z,100945.80
2022-12-28T00:46:55.884Z,100945.40
2022-12-28T00:49:24.295Z,100931.60
2022-12-28T00:51:52.843Z,100931.40
2022-12-28T00:54:21.301Z,100928.40
2022-12-28T00:56:50.064Z,100916.80
2022-12-28T00:59:18.584Z,100914.00
2022-12-28T01:01:46.911Z,100920.80
2022-12-28T01:04:15.430Z,100917.40
2022-12-28T01:07:00.642Z,100916.80
2022-12-28T01:09:29.146Z,100909.80
2022-12-28T01:11:57.610Z,100896.00
2022-12-28T01:14:26.326Z,100896.80
2022-12-28T01:16:55.029Z,100898.40
2022-12-28T01:19:25.549Z,100890.20
2022-12-28T01:21:54.145Z,100892.60
2022-12-28T01:24:22.875Z,100889.00
2022-12-28T01:26:51.451Z,100887.00
2022-12-28T01:29:20.086Z,100886.40
2022-12-28T01:31:48.847Z,100887.20
2022-12-28T01:34:17.860Z,100887.00
2022-12-28T01:36:46.302Z,100884.60
2022-12-28T01:39:15.065Z,100884.20
2022-12-28T01:41:46.960Z,100884.20
2022-12-28T01:44:15.121Z,100887.60
2022-12-28T01:47:01.489Z,100884.00
2022-12-28T01:49:49.085Z,100890.20
2022-12-28T01:52:50.422Z,100881.20
2022-12-28T01:55:51.164Z,100879.80
2022-12-28T01:58:34.246Z,100875.80
2022-12-28T02:01:03.303Z,100872.80
2022-12-28T02:03:34.904Z,100872.40
2022-12-28T02:06:11.742Z,100870.60
2022-12-28T02:08:56.522Z,100864.00
2022-12-28T02:11:29.599Z,100853.80
2022-12-28T02:14:00.344Z,100852.60
2022-12-28T02:16:28.585Z,100843.80
2022-12-28T02:18:57.602Z,100842.00
2022-12-28T02:21:47.186Z,100833.80
2022-12-28T02:25:12.521Z,100826.20
2022-12-28T02:28:36.749Z,100828.20
2022-12-28T02:31:16.140Z,100825.40
2022-12-28T02:34:13.399Z,100811.80
2022-12-28T02:36:54.499Z,100809.20
2022-12-28T02:39:40.405Z,100806.40
2022-12-28T02:42:10.220Z,100807.40
2022-12-28T02:45:08.793Z,100807.20
2022-12-28T02:47:59.679Z,100806.80
2022-12-28T02:50:47.460Z,100799.60
2022-12-28T02:53:42.923Z,100807.40
2022-12-28T02:57:15.441Z,100794.60
2022-12-28T03:00:08.876Z,100796.60
2022-12-28T03:03:13.447Z,100797.20
2022-12-28T03:06:30.088Z,100798.00
2022-12-28T03:09:29.301Z,100795.00
2022-12-28T03:12:32.777Z,100783.40
2022-12-28T03:15:13.396Z,100777.40
2022-12-28T03:18:03.304Z,100775.20
2022-12-28T03:20:53.040Z,100770.00
2022-12-28T03:23:43.103Z,100751.40
2022-12-28T03:26:32.665Z,100748.60
2022-12-28T03:29:26.315Z,100747.60
2022-12-28T03:31:57.923Z,100743.20
2022-12-28T03:34:26.520Z,100745.60
2022-12-28T03:37:43.125Z,100742.00
2022-12-28T03:40:42.280Z,100736.80
2022-12-28T03:43:42.751Z,100722.60
2022-12-28T03:46:29.666Z,100722.60
2022-12-28T03:49:05.498Z,100719.80
2022-12-28T03:51:35.143Z,100721.40
2022-12-28T03:54:03.820Z,100720.00
2022-12-28T03:56:31.864Z,100714.40
2022-12-28T03:59:02.825Z,100717.60
2022-12-28T04:01:31.249Z,100709.40
2022-12-28T04:03:59.305Z,100704.20
2022-12-28T04:06:30.243Z,100697.80
2022-12-28T04:08:58.527Z,100692.20
2022-12-28T04:11:30.064Z,100684.00
2022-12-28T04:13:58.322Z,100685.00
2022-12-28T04:16:26.386Z,100684.60
2022-12-28T04:18:57.413Z,100676.20
2022-12-28T04:21:25.647Z,100676.60
2022-12-28T04:23:54.745Z,100673.20
2022-12-28T04:26:22.845Z,100669.60
2022-12-28T04:28:51.219Z,100670.40
2022-12-28T04:31:19.607Z,100656.60
2022-12-28T04:33:47.705Z,100654.20
2022-12-28T04:36:18.655Z,100656.80
2022-12-28T04:38:47.326Z,100659.40
2022-12-28T04:41:15.609Z,100646.80
2022-12-28T04:43:43.922Z,100648.60
2022-12-28T04:46:15.348Z,100648.00
2022-12-28T04:48:43.899Z,100646.40
2022-12-28T04:51:19.762Z,100635.00
2022-12-28T04:53:49.041Z,100636.20
2022-12-28T04:56:20.683Z,100629.20
2022-12-28T04:58:57.563Z,100632.80
2022-12-28T05:01:29.886Z,100621.80
2022-12-28T05:03:59.643Z,100616.20
2022-12-28T05:07:42.937Z,100615.00
2022-12-28T05:16:19.626Z,100612.80
2022-12-28T05:18:49.304Z,100606.60
2022-12-28T05:21:24.193Z,100599.60
2022-12-28T05:23:53.644Z,100590.60
2022-12-28T05:26:26.625Z,100586.20
2022-12-28T05:28:56.779Z,100579.40
2022-12-28T05:31:25.539Z,100574.20
2022-12-28T05:33:54.987Z,100574.80
2022-12-28T05:36:29.373Z,100572.80
2022-12-28T05:38:57.462Z,100567.80
2022-12-28T05:41:31.243Z,100564.00
2022-12-28T05:44:06.947Z,100562.00
2022-12-28T05:46:38.148Z,100560.40
2022-12-28T05:49:09.661Z,100562.60
2022-12-28T05:51:39.737Z,100557.60
2022-12-28T05:54:11.265Z,100554.60
2022-12-28T05:56:43.682Z,100553.00
2022-12-28T05:59:13.589Z,100563.40
2022-12-28T06:01:47.688Z,100555.40
2022-12-28T06:04:19.534Z,100556.80
2022-12-28T06:06:50.103Z,100551.60
2022-12-28T06:09:21.265Z,100556.80
2022-12-28T06:11:49.440Z,100559.40
2022-12-28T06:14:17.702Z,100554.80
2022-12-28T06:16:46.169Z,100552.20
2022-12-28T06:19:15.467Z,100547.20
2022-12-28T06:21:44.486Z,100550.20
2022-12-28T06:24:14.211Z,100546.20
2022-12-28T06:26:45.629Z,100555.80
2022-12-28T06:29:13.658Z,100553.20
2022-12-28T06:31:51.312Z,100556.60
2022-12-28T06:34:19.059Z,100554.60
2022-12-28T06:36:46.710Z,100559.60
2022-12-28T06:39:15.103Z,100557.20
2022-12-28T06:41:43.385Z,100557.80
2022-12-28T06:44:13.785Z,100552.80
2022-12-28T06:46:41.903Z,100551.40
2022-12-28T06:49:09.430Z,100549.60
2022-12-28T06:51:41.037Z,100553.60
2022-12-28T06:54:10.102Z,100545.40
2022-12-28T06:56:38.643Z,100541.80
2022-12-28T06:59:06.649Z,100544.20
2022-12-28T07:01:38.472Z,100536.00
2022-12-28T07:04:09.589Z,100535.80
2022-12-28T07:06:43.901Z,100535.00
2022-12-28T07:09:15.215Z,100536.00
2022-12-28T07:11:44.705Z,100530.20
2022-12-28T07:14:12.590Z,100526.80
2022-12-28T07:19:08.483Z,100527.20
2022-12-28T07:21:39.452Z,100531.20
2022-12-28T07:24:08.547Z,100527.60
2022-12-28T07:26:38.266Z,100522.80
2022-12-28T07:29:08.136Z,100521.20
2022-12-28T07:31:44.932Z,100517.00
2022-12-28T07:34:16.650Z,100517.40
2022-12-28T07:36:44.493Z,100524.00
2022-12-28T07:39:12.273Z,100519.40
2022-12-28T07:41:40.014Z,100525.40
2022-12-28T07:44:08.095Z,100516.40
2022-12-28T07:46:37.703Z,100521.80
2022-12-28T07:49:06.215Z,100521.40
2022-12-28T07:51:37.084Z,100519.00
2022-12-28T07:54:05.824Z,100525.40
2022-12-28T07:59:04.526Z,100533.00
2022-12-28T08:01:35.439Z,100523.80
2022-12-28T08:04:08.807Z,100532.60
2022-12-28T08:06:40.393Z,100529.60
2022-12-28T08:09:11.894Z,100527.40
2022-12-28T08:11:45.587Z,100528.20
2022-12-28T08:14:13.727Z,100521.20
2022-12-28T08:16:44.005Z,100513.20
2022-12-28T08:19:13.519Z,100511.60
2022-12-28T08:21:44.673Z,100503.20
2022-12-28T08:24:19.042Z,100507.40
2022-12-28T08:26:48.643Z,100502.00
2022-12-28T08:29:21.366Z,100502.80
2022-12-28T08:31:50.057Z,100505.60
2022-12-28T08:34:26.539Z,100497.40
2022-12-28T08:36:56.164Z,100484.40
2022-12-28T08:39:23.751Z,100482.40
2022-12-28T08:41:51.284Z,100478.80
2022-12-28T08:44:18.952Z,100471.20
2022-12-28T08:46:46.657Z,100465.00
2022-12-28T08:49:15.198Z,100476.20
2022-12-28T08:51:43.370Z,100476.40
2022-12-28T08:54:13.671Z,100478.60
2022-12-28T08:56:44.453Z,100473.40
2022-12-28T08:59:17.133Z,100475.00
2022-12-28T09:01:46.629Z,100474.80
2022-12-28T09:04:21.454Z,100471.20
2022-12-28T09:06:49.613Z,100461.00
2022-12-28T09:09:19.408Z,100457.40
2022-12-28T09:11:48.161Z,100460.00
2022-12-28T09:14:23.353Z,100456.60
2022-12-28T09:16:54.924Z,100447.40
2022-12-28T09:19:23.464Z,100445.80
2022-12-28T09:21:52.918Z,100438.80
2022-12-28T09:24:21.715Z,100436.00
2022-12-28T09:26:52.327Z,100435.20
2022-12-28T09:29:20.312Z,100432.20
2022-12-28T09:31:49.883Z,100428.00
2022-12-28T09:37:08.438Z,100417.80
2022-12-28T09:39:36.331Z,100414.40
2022-12-28T09:42:25.209Z,100416.40
2022-12-28T09:45:10.679Z,100408.20
2022-12-28T09:47:50.517Z,100416.80
2022-12-28T09:50:18.709Z,100404.00
2022-12-28T09:53:05.195Z,100406.20
2022-12-28T09:55:39.787Z,100393.60
2022-12-28T09:58:16.327Z,100388.20
2022-12-28T10:00:57.582Z,100384.60
2022-12-28T10:03:33.144Z,100381.00
2022-12-28T10:06:02.628Z,100372.80
2022-12-28T10:08:31.014Z,100368.40
2022-12-28T10:11:02.148Z,100367.20
2022-12-28T10:13:54.535Z,100359.80
2022-12-28T10:16:26.404Z,100359.40
2022-12-28T10:18:54.847Z,100354.40
2022-12-28T10:21:32.506Z,100352.40
2022-12-28T10:26:52.255Z,100358.60
2022-12-28T10:29:23.570Z,100351.20
2022-12-28T10:32:09.156Z,100346.80
2022-12-28T10:34:44.928Z,100355.80
2022-12-28T10:37:18.617Z,100350.00
2022-12-28T10:40:15.072Z,100353.00
2022-12-28T10:42:46.238Z,100335.60
2022-12-28T10:45:27.529Z,100324.60
2022-12-28T10:47:57.121Z,100324.00
2022-12-28T10:50:46.271Z,100323.20
2022-12-28T10:53:43.348Z,100315.80
2022-12-28T10:56:14.044Z,100309.00
2022-12-28T10:58:45.091Z,100297.40
2022-12-28T11:01:12.849Z,100296.20
2022-12-28T11:03:57.608Z,100297.40
2022-12-28T11:06:35.358Z,100289.80
2022-12-28T11:09:29.391Z,100285.80
2022-12-28T11:12:22.353Z,100277.20
2022-12-28T11:14:52.147Z,100269.40
2022-12-28T11:17:28.014Z,100259.00
2022-12-28T11:20:19.530Z,100260.60
2022-12-28T11:22:47.865Z,100254.20
2022-12-28T11:25:18.670Z,100248.80
2022-12-28T11:27:48.286Z,100238.40
2022-12-28T11:30:18.889Z,100223.60
2022-12-28T11:33:00.884Z,100218.20
2022-12-28T11:35:38.689Z,100214.00
2022-12-28T11:38:11.384Z,100213.00
2022-12-28T11:40:44.867Z,100206.60
2022-12-28T11:43:32.947Z,100195.80
2022-12-28T11:46:03.480Z,100191.60
2022-12-28T11:48:43.183Z,100183.00
2022-12-28T11:51:32.463Z,100183.20
2022-12-28T11:54:39.848Z,100181.20
2022-12-28T11:57:08.531Z,100174.40
2022-12-28T11:59:36.964Z,100171.00
2022-12-28T12:02:27.252Z,100160.00
2022-12-28T12:04:55.275Z,100150.00
2022-12-28T12:07:31.752Z,100144.80
2022-12-28T12:10:28.182Z,100141.40
2022-12-28T12:12:56.257Z,100142.60
2022-12-28T12:15:44.048Z,100137.20
2022-12-28T12:18:33.777Z,100141.20
2022-12-28T12:21:13.541Z,100131.00
2022-12-28T12:23:53.807Z,100131.60
2022-12-28T12:26:29.533Z,100133.80
2022-12-28T12:29:12.149Z,100136.00
2022-12-28T12:32:07.311Z,100131.20
2022-12-28T12:34:54.689Z,100129.60
2022-12-28T12:37:54.761Z,100125.20
2022-12-28T12:40:43.845Z,100127.00
2022-12-28T12:43:36.611Z,100117.40
2022-12-28T12:46:29.320Z,100115.40
2022-12-28T12:49:25.589Z,100114.20
2022-12-28T12:52:06.067Z,100115.20
2022-12-28T12:55:10.886Z,100113.60
2022-12-28T12:57:52.985Z,100106.60
2022-12-28T13:00:26.391Z,100101.60
2022-12-28T13:03:43.618Z,100099.80
2022-12-28T13:06:16.188Z,100095.00
2022-12-28T13:09:00.430Z,100102.40
2022-12-28T13:11:34.838Z,100100.20
2022-12-28T13:14:03.349Z,100098.80
2022-12-28T13:16:32.585Z,100095.40
2022-12-28T13:19:05.567Z,100096.80
2022-12-28T13:21:48.737Z,100096.20
2022-12-28T13:24:40.072Z,100097.80
2022-12-28T13:27:20.251Z,100094.80
2022-12-28T13:29:54.861Z,100096.80
2022-12-28T13:32:38.339Z,100089.80
2022-12-28T13:35:20.227Z,100084.20
2022-12-28T13:38:09.747Z,100076.00
2022-12-28T13:40:40.255Z,100068.00
2022-12-28T13:43:44.508Z,100071.40
2022-12-28T13:46:18.170Z,100068.00
2022-12-28T13:48:52.432Z,100070.00
2022-12-28T13:51:21.826Z,100063.60
2022-12-28T13:53:55.600Z,100070.40
2022-12-28T13:56:24.848Z,100070.00
2022-12-28T13:59:04.529Z,100066.00
2022-12-28T14:01:40.749Z,100078.20
2022-12-28T14:04:51.838Z,100069.20
2022-12-28T14:07:15.409Z,100068.40
2022-12-28T14:09:45.449Z,100074.60
2022-12-28T14:12:15.391Z,100078.60
2022-12-28T14:14:45.253Z,100074.40
2022-12-28T14:17:13.492Z,100068.60
2022-12-28T14:19:42.915Z,100063.60
2022-12-28T14:22:36.931Z,100059.60
2022-12-28T14:25:17.964Z,100056.80
2022-12-28T14:28:00.709Z,100055.20
2022-12-28T14:30:41.772Z,100051.80
2022-12-28T14:33:24.685Z,100055.80
2022-12-28T14:36:00.757Z,100055.00
2022-12-28T14:38:35.401Z,100043.20
2022-12-28T14:41:04.501Z,100037.60
2022-12-28T14:43:35.890Z,100049.40
2022-12-28T14:46:27.760Z,100044.60
2022-12-28T14:48:55.612Z,100043.80
2022-12-28T14:51:31.878Z,100045.60
2022-12-28T14:54:22.367Z,100041.80
2022-12-28T14:57:03.756Z,100029.80
2022-12-28T14:59:42.895Z,100021.40
2022-12-28T15:02:41.241Z,100025.60
2022-12-28T15:05:44.885Z,100036.80
2022-12-28T15:08:13.255Z,100043.80
2022-12-28T15:10:52.297Z,100044.20
2022-12-28T15:13:21.930Z,100042.40
2022-12-28T15:15:55.466Z,100041.40
2022-12-28T15:18:24.288Z,100042.00
2022-12-28T15:20:52.149Z,100045.20
2022-12-28T15:23:20.778Z,100047.40
2022-12-28T15:25:48.911Z,100045.20
2022-12-28T15:28:17.172Z,100041.60
2022-12-28T15:30:45.253Z,100044.40
2022-12-28T15:33:13.232Z,100042.80
2022-12-28T15:35:41.099Z,100044.80
2022-12-28T15:38:08.849Z,100047.60
2022-12-28T15:40:40.019Z,100049.80
2022-12-28T15:43:07.547Z,100048.40
2022-12-28T15:45:35.428Z,100047.40
2022-12-28T15:48:03.099Z,100041.20
2022-12-28T15:50:32.127Z,100045.00
2022-12-28T15:53:00.767Z,100045.00
2022-12-28T15:55:28.534Z,100046.00
2022-12-28T15:57:56.387Z,100037.60
2022-12-28T16:00:24.279Z,100030.00
2022-12-28T16:02:52.048Z,100029.40
2022-12-28T16:05:19.789Z,100032.00
2022-12-28T16:07:48.391Z,100040.20
2022-12-28T16:10:15.947Z,100039.00
2022-12-28T16:12:43.509Z,100041.20
2022-12-28T16:15:11.686Z,100050.20
2022-12-28T16:17:48.626Z,100051.40
2022-12-28T16:20:19.691Z,100046.60
2022-12-28T16:22:47.481Z,100043.80
2022-12-28T16:25:15.436Z,100050.40
2022-12-28T16:27:43.196Z,100053.60
2022-12-28T16:30:12.162Z,100056.00
2022-12-28T16:32:40.048Z,100053.00
2022-12-28T16:35:08.779Z,100047.80
2022-12-28T16:37:36.916Z,100051.20
2022-12-28T16:40:05.327Z,100045.40
2022-12-28T16:42:32.954Z,100047.60
2022-12-28T16:45:01.010Z,100051.40
2022-12-28T16:47:29.786Z,100052.40
2022-12-28T16:49:57.587Z,100051.60
2022-12-28T16:52:25.358Z,100048.60
2022-12-28T16:54:52.917Z,100043.20
2022-12-28T16:57:20.767Z,100038.40
2022-12-28T16:59:49.988Z,100028.20
2022-12-28T17:02:17.800Z,100028.00
2022-12-28T17:04:45.730Z,100028.00
2022-12-28T17:07:13.932Z,100024.80
2022-12-28T17:09:46.683Z,100024.00
2022-12-28T17:12:18.118Z,100022.00
2022-12-28T17:14:46.287Z,100023.00
2022-12-28T17:17:14.055Z,100026.40
2022-12-28T17:19:42.029Z,100030.80
2022-12-28T17:22:10.090Z,100027.60
2022-12-28T17:24:37.968Z,100026.80
2022-12-28T17:27:09.112Z,100029.20
2022-12-28T17:29:39.853Z,100024.80
2022-12-28T17:32:08.040Z,100017.20
2022-12-28T17:34:36.812Z,100016.20
2022-12-28T17:37:04.907Z,100013.20
2022-12-28T17:39:39.684Z,100022.00
2022-12-28T17:42:08.910Z,100023.20
2022-12-28T17:44:36.587Z,100024.20
2022-12-28T17:47:05.048Z,100019.00
2022-12-28T17:49:32.931Z,100015.60
2022-12-28T17:52:00.574Z,100016.20
2022-12-28T17:54:28.234Z,100010.40
2022-12-28T17:56:55.913Z,100012.00
2022-12-28T17:59:23.875Z,100010.80
2022-12-28T18:01:52.109Z,100008.60
2022-12-28T18:04:19.706Z,100010.00
2022-12-28T18:06:47.686Z,100006.40
2022-12-28T18:09:15.950Z,100007.20
2022-12-28T18:11:43.608Z,100010.40
2022-12-28T18:14:12.872Z,100007.40
2022-12-28T18:16:41.182Z,100009.20
2022-12-28T18:19:08.949Z,100010.20
2022-12-28T18:21:37.748Z,100006.60
2022-12-28T18:24:06.738Z,100000.00
2022-12-28T18:26:34.287Z,99998.60
2022-12-28T18:29:01.850Z,99994.60
2022-12-28T18:31:29.920Z,99992.00
2022-12-28T18:33:58.407Z,99987.20
2022-12-28T18:36:26.067Z,99988.40
2022-12-28T18:38:54.255Z,99989.00
2022-12-28T18:41:22.772Z,99990.20
2022-12-28T18:43:51.344Z,99985.80
2022-12-28T18:46:19.821Z,99984.80
2022-12-28T18:48:47.461Z,99983.40
2022-12-28T18:51:18.146Z,99974.40
2022-12-28T18:53:46.915Z,99977.00
2022-12-28T18:56:21.115Z,99970.60
2022-12-28T18:58:55.856Z,99971.20
2022-12-28T19:04:17.432Z,99968.80
2022-12-28T19:06:45.428Z,99967.80
2022-12-28T19:09:13.625Z,99972.80
2022-12-28T19:11:41.824Z,99966.00
2022-12-28T19:14:12.446Z,99964.60
2022-12-28T19:16:41.354Z,99966.40
2022-12-28T19:19:10.056Z,99966.20
2022-12-28T19:21:42.612Z,99965.80
2022-12-28T19:24:16.104Z,99964.00
2022-12-28T19:26:47.245Z,99966.20
2022-12-28T19:29:16.832Z,99968.40
2022-12-28T19:31:45.740Z,99971.20
2022-12-28T19:34:15.787Z,99968.60
2022-12-28T19:36:44.138Z,99966.60
2022-12-28T19:39:12.636Z,99968.00
2022-12-28T19:41:41.737Z,99965.00
2022-12-28T19:44:09.458Z,99967.60
2022-12-28T19:46:38.260Z,99963.20
2022-12-28T19:49:06.009Z,99961.40
2022-12-28T19:51:34.408Z,99962.80
2022-12-28T19:54:02.557Z,99955.60
2022-12-28T19:56:31.594Z,99954.80
2022-12-28T19:59:06.108Z,99956.20
2022-12-28T20:01:37.566Z,99953.60
2022-12-28T20:04:13.498Z,99951.00
2022-12-28T20:06:45.715Z,99944.20
2022-12-28T20:09:14.863Z,99940.40
2022-12-28T20:11:44.488Z,99938.40
2022-12-28T20:14:19.135Z,99937.20
2022-12-28T20:16:51.152Z,99938.60
2022-12-28T20:19:18.908Z,99937.00
2022-12-28T20:21:46.577Z,99938.80
2022-12-28T20:24:14.681Z,99936.60
2022-12-28T20:26:42.408Z,99936.00
2022-12-28T20:29:10.473Z,99930.40
2022-12-28T20:31:38.132Z,99924.20
2022-12-28T20:34:05.721Z,99929.60
2022-12-28T20:36:34.326Z,99926.40
2022-12-28T20:39:03.196Z,99937.00
2022-12-28T20:41:52.245Z,99933.00
2022-12-28T20:44:31.987Z,99930.40
2022-12-28T20:47:04.317Z,99933.00
2022-12-28T20:49:32.235Z,99933.80
2022-12-28T20:52:01.392Z,99934.40
2022-12-28T20:54:30.108Z,99933.60
2022-12-28T20:56:58.949Z,99935.80
2022-12-28T20:59:28.899Z,99931.00
2022-12-28T21:01:57.601Z,99932.60
2022-12-28T21:04:26.328Z,99937.40
2022-12-28T21:06:54.781Z,99929.60
2022-12-28T21:09:24.196Z,99924.00
2022-12-28T21:11:52.761Z,99926.80
2022-12-28T21:14:20.874Z,99925.80
2022-12-28T21:16:49.904Z,99925.40
2022-12-28T21:19:17.605Z,99922.20
2022-12-28T21:21:47.067Z,99921.40
2022-12-28T21:24:15.268Z,99923.20
2022-12-28T21:26:43.237Z,99922.80
2022-12-28T21:29:10.892Z,99916.20
2022-12-28T21:31:39.650Z,99916.60
2022-12-28T21:34:07.979Z,99910.00
2022-12-28T21:36:35.836Z,99908.40
2022-12-28T21:39:04.114Z,99912.60
2022-12-28T21:41:50.907Z,99905.20
2022-12-28T21:44:24.089Z,99903.40
2022-12-28T21:46:53.851Z,99892.00
2022-12-28T21:49:22.608Z,99891.00
2022-12-28T21:51:51.820Z,99886.20
2022-12-28T21:54:22.537Z,99883.80
2022-12-28T21:56:54.548Z,99880.40
2022-12-28T21:59:24.927Z,99872.40
2022-12-28T22:02:12.829Z,99871.80
2022-12-28T22:05:07.292Z,99882.60
2022-12-28T22:07:35.023Z,99881.40
2022-12-28T22:10:21.630Z,99880.60
2022-12-28T22:12:49.399Z,99880.80
2022-12-28T22:15:39.788Z,99881.20
2022-12-28T22:21:08.749Z,99872.20
2022-12-28T22:23:36.469Z,99875.20
2022-12-28T22:26:04.135Z,99879.80
2022-12-28T22:28:31.905Z,99878.00
2022-12-28T22:31:04.929Z,99883.60
2022-12-28T22:33:32.749Z,99878.60
2022-12-28T22:36:17.081Z,99865.80
2022-12-28T22:38:45.590Z,99853.20
2022-12-28T22:41:13.349Z,99865.00
2022-12-28T22:43:41.941Z,99868.60
2022-12-28T22:46:12.066Z,99865.00
2022-12-28T22:48:39.934Z,99867.80
2022-12-28T22:51:15.588Z,99869.60
2022-12-28T22:53:43.443Z,99865.80
2022-12-28T22:56:19.637Z,99866.60
2022-12-28T22:58:48.285Z,99860.40
